Time;durP1;ratioP1;P1;durP2;ratioP2;P2;SDS_P1;SDS_P2;PMS_P1;PMS_P2;Temp;Humidity;BMP_temperature;BMP_pressure;BME280_temperature;BME280_humidity;BME280_pressure;Samples;Min_cycle;Max_cycle;Signal;HPM_P1;HPM_P2
2023/08/11 00:02:51;;;;;;;5.90;5.40;;;14.30;99.90;;;15.05;100.00;98452.16;10438963;28;20221;-70
2023/08/11 00:07:55;;;;;;;5.75;5.18;;;14.30;99.90;;;14.97;100.00;98456.94;10447067;28;20230;-69
2023/08/11 00:12:58;;;;;;;5.63;5.13;;;14.20;99.90;;;15.06;100.00;98456.50;10446244;28;20229;-68
2023/08/11 00:18:03;;;;;;;5.72;5.22;;;14.20;99.90;;;15.00;100.00;98451.06;10451232;28;20228;-68
2023/08/11 00:23:06;;;;;;;6.63;5.05;;;14.20;99.90;;;14.82;100.00;98451.91;10449312;28;20236;-69
2023/08/11 00:28:09;;;;;;;5.82;5.07;;;14.00;99.90;;;14.87;100.00;98449.56;10448049;28;20256;-68
2023/08/11 00:33:14;;;;;;;5.80;5.15;;;14.00;99.90;;;14.81;100.00;98444.09;10446947;28;20238;-70
2023/08/11 00:38:17;;;;;;;5.75;5.22;;;13.90;99.90;;;14.67;100.00;98451.13;10453081;28;20236;-68
2023/08/11 00:43:20;;;;;;;5.35;4.95;;;13.90;99.90;;;14.70;100.00;98443.56;10444003;28;20233;-68
2023/08/11 00:48:25;;;;;;;5.47;4.97;;;13.90;99.90;;;14.53;100.00;98452.13;10445251;28;20224;-68
2023/08/11 00:53:29;;;;;;;5.50;4.95;;;13.80;99.90;;;14.56;100.00;98449.69;10453977;28;20228;-70
2023/08/11 00:58:33;;;;;;;5.85;5.35;;;13.80;99.90;;;14.60;100.00;98449.06;10441133;28;20595;-70
2023/08/11 01:03:38;;;;;;;5.30;4.80;;;13.80;99.90;;;14.48;100.00;98450.97;10445959;28;20232;-70
2023/08/11 01:08:51;;;;;;;5.88;5.47;;;13.70;99.90;;;14.49;100.00;98447.59;10445479;28;20217;-69
2023/08/11 01:14:03;;;;;;;6.82;5.63;;;13.70;99.90;;;14.45;100.00;98443.09;10448634;28;20220;-69
2023/08/11 01:19:10;;;;;;;5.28;4.88;;;13.70;99.90;;;14.49;100.00;98439.88;10438274;28;20221;-68
2023/08/11 01:24:15;;;;;;;5.32;4.82;;;13.70;99.90;;;14.53;100.00;98447.84;10454400;28;20244;-68
2023/08/11 01:29:19;;;;;;;5.97;5.45;;;13.80;99.90;;;14.54;100.00;98453.91;10461062;28;20232;-68
2023/08/11 01:34:22;;;;;;;5.20;4.80;;;13.70;99.90;;;14.43;100.00;98451.63;10448039;28;20239;-69
2023/08/11 01:39:26;;;;;;;5.72;5.22;;;13.60;99.90;;;14.47;100.00;98462.06;10458120;28;20224;-68
2023/08/11 01:44:30;;;;;;;5.50;5.10;;;13.60;99.90;;;14.40;100.00;98454.03;10452679;28;20225;-69
2023/08/11 01:49:34;;;;;;;5.43;4.95;;;13.60;99.90;;;14.39;100.00;98457.44;10440639;28;20221;-69
2023/08/11 01:54:38;;;;;;;5.40;4.90;;;13.60;99.90;;;14.28;100.00;98458.56;10464328;28;20229;-70
2023/08/11 01:59:41;;;;;;;5.43;5.03;;;13.40;99.90;;;14.24;100.00;98458.31;10445468;28;20610;-69
2023/08/11 02:04:45;;;;;;;5.38;4.97;;;13.40;99.90;;;14.17;100.00;98449.41;10455799;28;20243;-69
2023/08/11 02:09:50;;;;;;;4.88;4.50;;;13.30;99.90;;;14.00;100.00;98452.78;10443992;28;20243;-70
2023/08/11 02:14:53;;;;;;;5.15;4.85;;;13.20;99.90;;;13.97;100.00;98449.22;10446869;28;20731;-69
2023/08/11 02:19:56;;;;;;;6.05;5.45;;;13.20;99.90;;;13.98;100.00;98445.84;10445330;28;20704;-69
2023/08/11 02:25:01;;;;;;;5.68;5.28;;;13.20;99.90;;;13.86;100.00;98450.34;10450029;28;20225;-69
2023/08/11 02:30:06;;;;;;;6.28;5.65;;;13.00;99.90;;;13.69;100.00;98445.97;10441086;28;20612;-69
2023/08/11 02:35:10;;;;;;;6.28;5.78;;;12.90;99.90;;;13.63;100.00;98438.81;10455085;28;20328;-69
2023/08/11 02:40:19;;;;;;;6.28;5.78;;;12.90;99.90;;;13.65;100.00;98446.59;10444008;28;20228;-68
2023/08/11 02:45:23;;;;;;;6.18;5.68;;;12.90;99.90;;;13.69;100.00;98444.28;10455527;28;20339;-69
2023/08/11 02:50:26;;;;;;;5.88;5.30;;;12.90;99.90;;;13.75;100.00;98451.44;10452044;28;20224;-69
2023/08/11 02:55:31;;;;;;;6.00;5.38;;;13.00;99.90;;;13.73;100.00;98445.31;10449358;28;20290;-69
2023/08/11 03:00:34;;;;;;;5.45;5.05;;;12.90;99.90;;;13.79;100.00;98458.50;10450353;28;20225;-70
2023/08/11 03:05:38;;;;;;;6.57;6.00;;;12.90;99.90;;;13.71;100.00;98444.38;10445385;28;20221;-69
2023/08/11 03:10:42;;;;;;;6.78;5.00;;;12.90;99.90;;;13.68;100.00;98455.38;10444909;28;20233;-69
2023/08/11 03:15:59;;;;;;;5.93;5.43;;;12.80;99.90;;;13.57;100.00;98460.72;10444409;28;20347;-70
2023/08/11 03:21:03;;;;;;;5.20;4.80;;;12.70;99.90;;;13.55;100.00;98459.75;10449331;28;20220;-69
2023/08/11 03:26:23;;;;;;;5.80;5.30;;;12.60;99.90;;;13.46;100.00;98447.28;10448394;28;20251;-68
2023/08/11 03:31:27;;;;;;;6.00;5.40;;;12.60;99.90;;;13.31;100.00;98452.47;10440819;28;20261;-68
2023/08/11 03:36:30;;;;;;;5.57;5.07;;;12.50;99.90;;;13.27;100.00;98447.94;10438048;28;20731;-69
2023/08/11 03:41:34;;;;;;;5.43;5.00;;;12.50;99.90;;;13.27;100.00;98455.63;10449735;28;20232;-69
2023/08/11 03:46:38;;;;;;;6.10;5.60;;;12.50;99.90;;;13.34;100.00;98459.47;10436809;28;20320;-69
2023/08/11 03:51:41;;;;;;;5.95;5.38;;;12.50;99.90;;;13.32;100.00;98463.63;10449998;28;20255;-70
2023/08/11 03:56:46;;;;;;;5.25;4.85;;;12.50;99.90;;;13.25;100.00;98459.78;10433427;28;20232;-69
2023/08/11 04:01:49;;;;;;;5.93;5.43;;;12.40;99.90;;;13.20;100.00;98459.53;10445669;28;20708;-69
2023/08/11 04:06:53;;;;;;;6.00;5.60;;;12.40;99.90;;;13.16;100.00;98472.09;10446943;28;20332;-69
2023/08/11 04:11:57;;;;;;;6.10;5.70;;;12.40;99.90;;;13.05;100.00;98468.94;10441533;28;20228;-68
2023/08/11 04:17:01;;;;;;;6.10;5.50;;;12.30;99.90;;;13.12;100.00;98472.72;10523469;23;20713;-71
2023/08/11 04:22:05;;;;;;;6.25;5.65;;;12.40;99.90;;;13.11;100.00;98460.69;10518091;28;20258;-71
2023/08/11 04:27:10;;;;;;;6.03;5.53;;;12.40;99.90;;;13.13;100.00;98474.47;10490703;28;20236;-71
2023/08/11 04:32:13;;;;;;;5.55;5.15;;;12.40;99.90;;;13.11;100.00;98464.13;10491401;28;20791;-71
2023/08/11 04:37:18;;;;;;;6.78;6.18;;;12.40;99.90;;;13.14;100.00;98460.88;10484343;28;20228;-71
2023/08/11 04:42:23;;;;;;;6.40;5.80;;;12.40;99.90;;;13.23;100.00;98479.34;10488411;28;20587;-70
2023/08/11 04:47:26;;;;;;;6.63;6.05;;;12.50;99.90;;;13.33;100.00;98481.66;10487605;28;20234;-71
2023/08/11 04:52:29;;;;;;;7.00;5.68;;;12.60;99.90;;;13.24;100.00;98473.41;10485163;28;20921;-71
2023/08/11 04:57:34;;;;;;;5.68;5.22;;;12.50;99.90;;;13.37;100.00;98475.91;10525793;28;20785;-71
2023/08/11 05:02:37;;;;;;;5.95;5.45;;;12.60;99.90;;;13.38;100.00;98472.53;10526695;28;20223;-72
2023/08/11 05:07:41;;;;;;;5.82;5.22;;;12.60;99.90;;;13.48;100.00;98477.41;10524864;28;20232;-70
2023/08/11 05:12:46;;;;;;;6.25;5.72;;;12.80;99.90;;;13.65;100.00;98468.06;10519338;28;20223;-71
2023/08/11 05:17:49;;;;;;;6.97;6.35;;;13.00;99.90;;;13.88;100.00;98464.16;10521162;28;20235;-70
2023/08/11 05:22:53;;;;;;;5.78;5.38;;;13.20;99.90;;;14.08;100.00;98469.44;10528502;28;20832;-70
2023/08/11 05:27:57;;;;;;;6.25;5.65;;;13.30;99.90;;;14.97;100.00;98469.81;10525660;28;20215;-71
2023/08/11 05:33:00;;;;;;;5.53;5.10;;;14.60;99.90;;;16.76;92.44;98466.00;10532703;28;20229;-71
2023/08/11 05:38:05;;;;;;;5.65;4.90;;;16.60;99.90;;;17.98;82.71;98467.53;10531391;28;20228;-70
2023/08/11 05:43:10;;;;;;;5.45;4.95;;;17.40;99.90;;;18.70;75.49;98480.47;10536717;28;20235;-71
2023/08/11 05:48:13;;;;;;;4.95;4.55;;;17.70;99.90;;;19.31;73.81;98472.19;10509079;28;20714;-72
2023/08/11 05:53:16;;;;;;;5.30;4.10;;;18.00;99.90;;;20.08;70.18;98474.59;10511806;28;20231;-71
2023/08/11 05:58:20;;;;;;;4.80;4.40;;;18.50;99.90;;;20.64;67.00;98471.91;10514377;28;20221;-73
2023/08/11 06:03:29;;;;;;;4.53;3.97;;;18.90;99.90;;;21.03;65.25;98478.97;10515934;28;20697;-71
2023/08/11 06:08:34;;;;;;;4.78;4.38;;;19.40;99.90;;;21.32;61.93;98474.53;10523082;28;20229;-72
2023/08/11 06:13:38;;;;;;;5.15;4.75;;;19.20;99.90;;;21.38;62.59;98472.09;10531223;28;20238;-71
2023/08/11 06:18:41;;;;;;;4.90;4.30;;;19.10;99.90;;;21.79;63.01;98472.16;10531212;28;20226;-70
2023/08/11 06:23:45;;;;;;;5.10;4.57;;;19.40;99.90;;;22.37;59.99;98469.94;10531308;28;20579;-72
2023/08/11 06:28:49;;;;;;;4.90;4.40;;;20.00;99.90;;;22.81;58.01;98470.81;10524102;28;20224;-71
2023/08/11 06:33:52;;;;;;;4.05;3.75;;;20.10;99.90;;;23.12;58.59;98469.66;10536663;28;20227;-70
2023/08/11 06:38:55;;;;;;;4.85;4.38;;;20.70;99.90;;;23.72;56.44;98464.53;10514219;28;20223;-72
2023/08/11 06:44:00;;;;;;;4.82;4.15;;;21.10;99.90;;;23.98;54.05;98462.28;10521945;28;20624;-70
2023/08/11 06:49:04;;;;;;;4.78;4.38;;;21.50;99.90;;;24.35;53.33;98465.34;10514602;28;20596;-70
2023/08/11 06:54:07;;;;;;;4.18;3.88;;;22.00;99.90;;;24.79;53.01;98465.91;10528494;28;20232;-70
2023/08/11 06:59:11;;;;;;;4.43;4.03;;;22.40;99.90;;;24.60;50.86;98474.41;10520543;28;20314;-71
2023/08/11 07:04:14;;;;;;;4.45;3.92;;;22.60;99.90;;;24.63;52.86;98469.22;10520376;28;20228;-71
2023/08/11 07:09:18;;;;;;;4.82;3.92;;;22.60;99.90;;;25.51;49.42;98473.53;10522471;28;20232;-71
2023/08/11 07:14:22;;;;;;;3.97;3.58;;;23.10;99.90;;;25.23;50.37;98472.44;10524037;28;20238;-71
2023/08/11 07:19:25;;;;;;;4.20;3.90;;;23.00;99.90;;;26.14;47.57;98471.34;10519110;28;20223;-70
2023/08/11 07:24:28;;;;;;;4.65;3.63;;;23.70;99.90;;;26.15;47.49;98468.72;10534649;28;20226;-70
2023/08/11 07:29:33;;;;;;;4.20;3.80;;;23.80;99.90;;;26.65;47.36;98465.44;10516996;28;20234;-70
2023/08/11 07:34:38;;;;;;;4.43;4.03;;;24.10;99.90;;;27.29;44.61;98474.31;10532159;28;20749;-70
2023/08/11 07:39:42;;;;;;;4.35;4.05;;;24.50;98.50;;;27.88;44.49;98480.44;10527985;28;20773;-71
2023/08/11 07:44:46;;;;;;;3.70;3.50;;;24.70;98.90;;;28.02;42.67;98487.38;10514158;28;20233;-71
2023/08/11 07:49:50;;;;;;;3.67;3.38;;;25.20;96.80;;;28.47;43.63;98492.50;10524855;28;20241;-70
2023/08/11 07:54:53;;;;;;;4.10;3.70;;;25.30;98.10;;;28.89;41.98;98487.91;10523960;28;20232;-72
2023/08/11 07:59:58;;;;;;;4.47;4.00;;;25.60;96.90;;;28.73;42.88;98492.38;10521225;28;20258;-70
2023/08/11 08:05:01;;;;;;;4.22;3.78;;;26.00;97.00;;;27.75;44.98;98485.66;10525944;28;20892;-70
2023/08/11 08:10:15;;;;;;;3.90;3.53;;;25.60;97.10;;;28.04;44.96;98490.00;10523968;28;20242;-70
2023/08/11 08:15:19;;;;;;;4.40;4.00;;;26.00;96.60;;;27.78;44.65;98485.63;10514513;28;20231;-71
2023/08/11 08:20:23;;;;;;;3.80;3.50;;;26.20;95.80;;;27.71;46.33;98493.56;10512899;28;20231;-70
2023/08/11 08:25:26;;;;;;;3.78;3.47;;;26.30;96.60;;;28.09;45.48;98493.50;10517813;28;20231;-70
2023/08/11 08:30:31;;;;;;;3.92;3.63;;;26.60;96.30;;;28.52;44.69;98498.63;10516970;28;20275;-72
2023/08/11 08:35:34;;;;;;;3.95;3.65;;;27.30;95.50;;;28.54;44.23;98491.63;10510837;28;20226;-70
2023/08/11 08:40:38;;;;;;;3.85;3.50;;;27.30;94.70;;;28.68;43.21;98502.94;10516066;28;20245;-71
2023/08/11 08:45:45;;;;;;;3.30;3.00;;;27.50;94.30;;;28.69;43.40;98499.41;10512136;28;20231;-69
2023/08/11 08:50:48;;;;;;;3.53;3.20;;;27.50;94.10;;;28.58;44.05;98495.97;10509616;28;20219;-70
2023/08/11 08:55:51;;;;;;;3.70;3.40;;;27.50;93.50;;;28.80;43.82;98495.88;10514315;28;20964;-69
2023/08/11 09:00:56;;;;;;;3.53;3.28;;;27.80;93.90;;;28.82;43.93;98491.47;10517688;28;20234;-69
2023/08/11 09:06:00;;;;;;;3.63;3.30;;;27.80;94.20;;;29.11;42.08;98481.66;10511911;28;20632;-69
2023/08/11 09:11:03;;;;;;;3.60;3.30;;;28.10;92.20;;;29.39;41.50;98477.06;10517996;28;20264;-71
2023/08/11 09:16:07;;;;;;;3.33;3.10;;;28.60;91.20;;;29.49;39.21;98469.94;10511024;28;20241;-70
2023/08/11 09:21:12;;;;;;;3.20;2.90;;;28.60;89.10;;;29.16;40.42;98468.47;10520475;28;20231;-70
2023/08/11 09:26:15;;;;;;;3.42;3.13;;;28.30;90.20;;;29.22;39.46;98459.63;10520336;28;20227;-69
2023/08/11 09:31:23;;;;;;;3.47;3.17;;;28.40;88.30;;;29.64;38.23;98450.50;10520275;28;20246;-70
2023/08/11 09:36:27;;;;;;;3.22;2.97;;;28.80;87.00;;;29.73;39.59;98455.69;10506307;28;20223;-70
2023/08/11 09:41:30;;;;;;;3.50;3.20;;;28.80;88.80;;;29.65;39.11;98454.91;10517134;28;20227;-69
2023/08/11 09:46:38;;;;;;;3.50;3.20;;;28.70;87.20;;;29.54;39.34;98454.94;10516992;28;20277;-72
2023/08/11 09:51:42;;;;;;;3.30;3.08;;;28.80;86.80;;;29.69;39.14;98450.47;10522020;28;20229;-70
2023/08/11 09:56:45;;;;;;;3.33;3.03;;;29.10;87.40;;;29.92;39.31;98445.81;10528757;28;20227;-72
2023/08/11 10:01:54;;;;;;;3.63;3.20;;;29.10;87.70;;;29.96;40.34;98447.53;10521474;28;20220;-72
2023/08/11 10:07:00;;;;;;;3.30;3.00;;;29.30;88.20;;;29.72;40.56;98439.88;10531106;28;20599;-70
2023/08/11 10:12:05;;;;;;;3.58;3.38;;;29.00;89.10;;;30.15;39.87;98434.13;10536039;28;20226;-68
2023/08/11 10:17:12;;;;;;;3.40;3.20;;;29.50;87.40;;;30.22;38.66;98430.56;10512288;22;20325;-67
2023/08/11 10:22:16;;;;;;;3.80;3.50;;;29.60;85.80;;;30.31;39.56;98441.00;10475755;28;20223;-68
2023/08/11 10:27:19;;;;;;;3.60;3.30;;;29.70;86.90;;;30.23;40.65;98432.31;10479366;28;20315;-69
2023/08/11 10:32:29;;;;;;;3.88;3.58;;;29.50;88.80;;;30.10;39.29;98434.16;10477130;28;20227;-67
2023/08/11 10:37:33;;;;;;;4.28;3.88;;;29.50;86.30;;;30.01;40.12;98432.50;10476671;28;20306;-68
2023/08/11 10:42:37;;;;;;;4.20;3.90;;;29.40;87.60;;;29.89;38.41;98439.69;10473036;28;20222;-68
2023/08/11 10:47:46;;;;;;;6.22;5.72;;;29.40;84.90;;;29.77;40.34;98440.72;10463884;28;20238;-69
2023/08/11 10:53:06;;;;;;;4.63;4.25;;;29.10;87.60;;;29.71;41.14;98432.88;10461079;28;20238;-69
2023/08/11 10:58:14;;;;;;;4.07;3.78;;;29.00;88.70;;;29.73;40.32;98426.69;10461688;28;20324;-67
2023/08/11 11:03:19;;;;;;;4.60;4.20;;;29.10;87.10;;;29.60;41.42;98428.53;10469859;28;20625;-68
2023/08/11 11:08:22;;;;;;;4.10;3.80;;;29.00;88.10;;;29.74;40.58;98430.19;10463610;28;20247;-66
2023/08/11 11:13:25;;;;;;;3.53;3.28;;;29.20;87.60;;;29.68;41.22;98425.00;10467568;28;20656;-67
2023/08/11 11:18:31;;;;;;;3.97;3.67;;;29.10;87.70;;;29.64;40.93;98419.72;10460298;28;20232;-68
2023/08/11 11:23:34;;;;;;;3.75;3.50;;;29.10;88.00;;;29.81;40.63;98423.97;10471816;28;20231;-68
2023/08/11 11:28:37;;;;;;;3.65;3.30;;;29.10;87.70;;;29.76;39.34;98412.59;10478487;28;20280;-68
2023/08/11 11:33:42;;;;;;;3.70;3.40;;;29.00;86.10;;;29.93;39.20;98405.34;10474927;28;20226;-68
2023/08/11 11:38:46;;;;;;;3.40;3.20;;;29.20;85.10;;;29.75;41.00;98406.44;10480814;28;20269;-68
2023/08/11 11:43:51;;;;;;;3.28;2.97;;;29.10;88.30;;;29.84;40.89;98413.38;10475326;28;20216;-67
2023/08/11 11:48:56;;;;;;;3.10;2.80;;;29.20;88.10;;;29.90;40.55;98409.81;10469743;28;20230;-67
2023/08/11 11:54:00;;;;;;;3.50;3.20;;;29.20;87.30;;;29.85;38.61;98401.97;10469689;28;20228;-67
2023/08/11 11:59:03;;;;;;;3.30;3.10;;;29.10;84.50;;;29.79;40.05;98402.91;10467334;28;20411;-68
2023/08/11 12:04:08;;;;;;;3.45;3.20;;;29.00;86.10;;;29.83;40.95;98403.72;10464793;28;20232;-67
2023/08/11 12:09:11;;;;;;;3.10;2.90;;;29.10;87.80;;;29.88;39.96;98396.66;10471137;28;20224;-68
2023/08/11 12:14:14;;;;;;;3.10;2.90;;;29.10;86.20;;;29.74;41.16;98390.66;10472419;28;20323;-68
2023/08/11 12:19:19;;;;;;;3.03;2.83;;;29.00;87.00;;;29.70;39.77;98386.31;10466802;28;20228;-67
2023/08/11 12:24:23;;;;;;;3.40;3.05;;;29.00;85.80;;;29.72;40.79;98381.91;10471313;28;20235;-68
2023/08/11 12:29:26;;;;;;;3.20;3.00;;;29.10;87.00;;;30.08;39.82;98377.94;10464539;28;20723;-68
2023/08/11 12:34:31;;;;;;;3.35;3.05;;;29.40;85.40;;;29.89;40.37;98372.03;10468652;28;20311;-68
2023/08/11 12:39:34;;;;;;;3.20;3.00;;;29.20;86.70;;;29.80;41.71;98361.59;10472964;28;20246;-68
2023/08/11 12:44:38;;;;;;;3.10;2.90;;;29.00;88.20;;;29.76;41.57;98359.88;10460357;28;20228;-68
2023/08/11 12:49:43;;;;;;;3.60;3.30;;;29.10;87.70;;;29.87;40.51;98365.88;10472779;28;20232;-68
2023/08/11 12:54:47;;;;;;;3.20;3.00;;;29.00;86.70;;;30.08;40.44;98357.72;10460730;28;20232;-68
2023/08/11 12:59:50;;;;;;;3.35;3.15;;;29.10;86.90;;;30.02;40.08;98365.72;10460402;28;20224;-68
2023/08/11 13:04:54;;;;;;;3.60;3.30;;;29.20;86.20;;;29.78;39.41;98361.59;10465163;28;20231;-68
2023/08/11 13:09:57;;;;;;;3.05;2.75;;;28.90;85.30;;;29.77;41.32;98361.63;10461786;28;20749;-68
2023/08/11 13:15:00;;;;;;;3.00;2.80;;;28.90;88.80;;;29.80;40.74;98356.31;10456903;28;20653;-68
2023/08/11 13:20:09;;;;;;;2.90;2.70;;;28.90;86.70;;;30.23;38.78;98361.06;10470585;28;20232;-68
2023/08/11 13:25:13;;;;;;;2.80;2.60;;;29.30;84.70;;;30.12;38.26;98357.69;10466286;28;20228;-68
2023/08/11 13:30:16;;;;;;;2.70;2.50;;;29.30;83.30;;;29.82;39.81;98362.47;10469907;28;20671;-68
2023/08/11 13:35:21;;;;;;;2.50;2.30;;;29.00;85.10;;;29.90;39.35;98360.56;10469829;28;20224;-68
2023/08/11 13:40:24;;;;;;;2.65;2.45;;;29.10;84.50;;;30.13;39.47;98362.06;10478699;28;20227;-68
2023/08/11 13:45:27;;;;;;;2.70;2.50;;;29.40;84.60;;;30.17;39.02;98362.00;10474198;28;20232;-68
2023/08/11 13:50:32;;;;;;;2.58;2.38;;;29.40;83.60;;;30.09;39.13;98361.22;10472489;28;20239;-68
2023/08/11 13:55:35;;;;;;;2.25;2.15;;;29.20;84.30;;;30.32;38.16;98358.31;10477163;28;20228;-67
2023/08/11 14:00:38;;;;;;;2.42;2.22;;;29.40;82.60;;;30.14;37.78;98353.25;10478111;28;20230;-68
2023/08/11 14:05:43;;;;;;;2.60;2.40;;;29.20;81.70;;;30.22;38.14;98349.66;10471679;28;20305;-68
2023/08/11 14:10:46;;;;;;;2.08;1.88;;;29.30;82.50;;;29.97;38.56;98351.72;10480238;28;20574;-68
2023/08/11 14:15:49;;;;;;;2.85;2.13;;;29.10;83.40;;;30.03;39.82;98343.72;10470534;28;22251;-68
2023/08/11 14:20:54;;;;;;;2.28;2.17;;;29.00;84.80;;;30.14;38.10;98340.06;10472990;28;20303;-69
2023/08/11 14:25:57;;;;;;;2.40;2.20;;;29.20;82.00;;;30.09;38.82;98332.22;10472103;28;20738;-67
2023/08/11 14:31:00;;;;;;;2.42;2.22;;;29.30;83.10;;;30.22;37.36;98328.56;10471394;28;20315;-67
2023/08/11 14:36:06;;;;;;;2.20;1.98;;;29.20;81.70;;;30.05;39.15;98336.66;10476004;28;20252;-68
2023/08/11 14:41:15;;;;;;;2.38;2.28;;;29.10;83.70;;;30.01;39.25;98334.94;10470919;28;20263;-68
2023/08/11 14:46:18;;;;;;;2.60;2.40;;;29.00;84.10;;;29.98;39.20;98335.00;10470096;28;20232;-68
2023/08/11 14:51:23;;;;;;;2.30;2.20;;;29.00;84.20;;;29.86;38.48;98330.75;10472919;28;20694;-67
2023/08/11 14:56:28;;;;;;;2.30;2.10;;;29.00;82.40;;;29.96;38.71;98320.97;10472313;28;20235;-67
2023/08/11 15:01:31;;;;;;;2.35;2.17;;;29.10;83.00;;;29.92;38.43;98327.16;10476993;28;20239;-68
2023/08/11 15:06:36;;;;;;;2.40;2.30;;;29.00;82.30;;;29.86;38.97;98325.47;10472063;28;20230;-67
2023/08/11 15:11:39;;;;;;;2.00;1.90;;;28.90;82.90;;;29.97;38.07;98324.47;10478604;28;20232;-67
2023/08/11 15:16:42;;;;;;;2.35;2.20;;;29.00;82.70;;;29.79;38.41;98317.66;10473785;28;20238;-68
2023/08/11 15:21:47;;;;;;;2.30;2.20;;;28.80;82.30;;;29.77;38.80;98314.19;10473473;28;20219;-68
2023/08/11 15:26:50;;;;;;;2.20;2.03;;;28.70;82.50;;;29.72;39.13;98303.69;10467681;28;20339;-68
2023/08/11 15:31:53;;;;;;;2.35;2.15;;;28.80;83.10;;;29.73;39.00;98287.00;10462601;28;20223;-67
2023/08/11 15:36:58;;;;;;;2.65;2.42;;;28.80;82.60;;;29.60;38.29;98291.50;10462560;28;20229;-67
2023/08/11 15:42:01;;;;;;;2.50;2.30;;;28.70;82.20;;;29.53;39.57;98288.97;10455523;28;20737;-68
2023/08/11 15:47:05;;;;;;;2.42;2.33;;;28.60;83.50;;;29.47;38.81;98282.00;10462199;28;20726;-67
2023/08/11 15:52:09;;;;;;;2.50;2.30;;;28.50;82.80;;;29.56;39.31;98268.75;10466086;28;20220;-67
2023/08/11 15:57:13;;;;;;;3.38;2.55;;;28.60;83.10;;;29.52;39.55;98267.00;10469596;28;20279;-67
2023/08/11 16:02:16;;;;;;;2.60;2.40;;;28.60;84.00;;;29.57;38.80;98265.19;10472444;28;20238;-68
2023/08/11 16:07:23;;;;;;;2.28;2.08;;;28.70;81.30;;;29.69;39.64;98263.34;10477645;28;20890;-68
2023/08/11 16:12:29;;;;;;;2.50;2.30;;;28.70;84.20;;;29.56;38.95;98252.94;10469201;28;20224;-68
2023/08/11 16:17:35;;;;;;;2.35;2.22;;;28.70;82.30;;;29.59;38.87;98252.88;10473271;28;20231;-68
2023/08/11 16:22:40;;;;;;;2.60;2.40;;;28.70;82.00;;;29.61;38.17;98258.13;10466736;28;20248;-68
2023/08/11 16:27:43;;;;;;;2.58;2.38;;;28.80;81.10;;;29.57;39.85;98249.41;10477966;28;20534;-68
2023/08/11 16:32:46;;;;;;;2.60;2.40;;;28.60;84.10;;;29.50;40.30;98247.72;10467634;28;20604;-68
2023/08/11 16:37:51;;;;;;;2.70;2.50;;;28.50;85.20;;;29.44;40.87;98245.16;10457145;28;20224;-68
2023/08/11 16:42:54;;;;;;;3.00;2.70;;;28.40;85.20;;;29.33;41.44;98255.84;10461900;28;20220;-68
2023/08/11 16:47:57;;;;;;;2.40;2.20;;;28.30;86.60;;;29.21;42.10;98244.56;10464916;28;20223;-68
2023/08/11 16:53:01;;;;;;;2.40;2.20;;;28.10;87.70;;;29.09;41.29;98241.19;10463782;28;20216;-68
2023/08/11 16:58:05;;;;;;;2.70;2.50;;;28.00;85.80;;;29.04;41.70;98242.97;10462747;28;20598;-69
2023/08/11 17:03:08;;;;;;;2.92;2.65;;;28.00;86.40;;;28.92;42.74;98232.56;10459805;28;20227;-68
2023/08/11 17:08:14;;;;;;;2.70;2.50;;;27.80;87.20;;;28.94;43.17;98225.53;10455506;28;20239;-68
2023/08/11 17:13:17;;;;;;;2.78;2.58;;;27.80;89.20;;;28.85;43.89;98223.00;10455181;28;20286;-69
2023/08/11 17:18:21;;;;;;;3.55;3.25;;;27.70;89.90;;;28.90;44.10;98229.97;10449401;28;20234;-68
2023/08/11 17:23:25;;;;;;;3.22;3.03;;;27.90;89.70;;;28.90;43.65;98229.06;10462392;28;20236;-68
2023/08/11 17:28:28;;;;;;;3.30;3.10;;;27.90;89.50;;;28.90;44.54;98229.06;10470739;28;20658;-68
2023/08/11 17:33:32;;;;;;;3.22;2.97;;;27.90;90.80;;;28.73;46.21;98227.50;10464630;28;20224;-68
2023/08/11 17:38:36;;;;;;;3.70;3.40;;;27.70;91.90;;;28.57;47.78;98227.66;10466242;28;20234;-69
2023/08/11 17:43:39;;;;;;;3.33;3.13;;;27.50;93.10;;;28.41;48.80;98218.97;10477776;28;20230;-69
2023/08/11 17:48:43;;;;;;;3.10;2.85;;;27.30;94.50;;;28.17;50.36;98226.19;10475529;28;20221;-69
2023/08/11 17:53:48;;;;;;;3.40;3.10;;;27.10;95.70;;;27.93;53.32;98215.81;10468325;28;20239;-69
2023/08/11 17:59:09;;;;;;;3.40;3.10;;;26.80;97.70;;;27.79;55.44;98218.56;10454345;28;20223;-69
2023/08/11 18:04:13;;;;;;;3.58;3.28;;;26.60;99.50;;;27.68;56.67;98223.84;10461671;28;20239;-69
2023/08/11 18:09:17;;;;;;;3.47;3.20;;;26.60;99.90;;;27.42;57.61;98228.34;10471179;28;20797;-69
2023/08/11 18:14:21;;;;;;;3.20;3.00;;;26.30;99.90;;;27.23;59.06;98225.78;10465655;28;20229;-69
2023/08/11 18:19:24;;;;;;;3.63;3.30;;;26.20;99.90;;;26.97;60.75;98233.69;10462172;28;20235;-69
2023/08/11 18:24:28;;;;;;;3.67;3.38;;;25.90;99.90;;;26.69;63.15;98235.50;10460319;28;20394;-69
2023/08/11 18:29:31;;;;;;;3.60;3.30;;;25.60;99.90;;;26.44;64.88;98234.59;10451502;28;20606;-69
2023/08/11 18:34:35;;;;;;;3.30;3.10;;;25.30;99.90;;;26.14;65.52;98235.47;10458090;28;20742;-69
2023/08/11 18:39:39;;;;;;;3.97;3.67;;;25.10;99.90;;;25.91;67.02;98248.53;10458228;28;20233;-69
2023/08/11 18:44:42;;;;;;;3.70;3.40;;;24.80;99.90;;;25.76;67.08;98250.22;10469538;28;20220;-69
2023/08/11 18:49:45;;;;;;;4.15;3.80;;;24.60;99.90;;;25.53;68.12;98250.16;10474709;28;20234;-69
2023/08/11 18:54:50;;;;;;;3.85;3.55;;;24.40;99.90;;;25.29;69.99;98255.25;10460255;28;20228;-69
2023/08/11 18:59:53;;;;;;;4.15;3.80;;;24.20;99.90;;;25.08;71.18;98253.38;10452349;28;20240;-69
2023/08/11 19:04:57;;;;;;;3.80;3.50;;;24.00;99.90;;;24.86;71.57;98262.84;10462011;28;20726;-69
2023/08/11 19:10:01;;;;;;;4.35;3.78;;;23.80;99.90;;;24.72;72.17;98265.34;10455430;28;20224;-69
2023/08/11 19:15:06;;;;;;;3.92;3.47;;;23.70;99.90;;;24.69;73.15;98266.19;10471883;28;20247;-69
2023/08/11 19:20:10;;;;;;;4.50;4.07;;;23.60;99.90;;;24.47;74.71;98265.19;10458223;28;20232;-69
2023/08/11 19:25:15;;;;;;;4.18;3.78;;;23.40;99.90;;;24.24;75.78;98278.00;10459337;28;20351;-69
2023/08/11 19:30:18;;;;;;;4.00;3.63;;;23.20;99.90;;;24.10;77.13;98268.28;10460539;28;20223;-69
2023/08/11 19:35:21;;;;;;;3.55;3.35;;;23.00;99.90;;;23.93;77.87;98278.56;10453854;28;20233;-70
2023/08/11 19:40:26;;;;;;;4.25;3.85;;;22.80;99.90;;;23.69;78.86;98277.38;10450889;28;20229;-69
2023/08/11 19:45:30;;;;;;;4.72;4.32;;;22.70;99.90;;;23.55;80.16;98269.41;10460868;28;20243;-70
2023/08/11 19:50:33;;;;;;;4.50;4.10;;;22.50;99.90;;;23.39;80.23;98265.72;10450889;28;20243;-69
2023/08/11 19:55:38;;;;;;;4.10;3.80;;;22.40;99.90;;;23.31;80.89;98269.94;10448424;28;20239;-69
2023/08/11 20:00:42;;;;;;;4.50;4.10;;;22.20;99.90;;;23.18;81.69;98268.06;10456238;28;20235;-70
2023/08/11 20:05:46;;;;;;;4.47;4.07;;;22.10;99.90;;;23.00;82.74;98273.00;10465835;28;20240;-70
2023/08/11 20:10:51;;;;;;;4.35;3.88;;;22.00;99.90;;;22.85;84.16;98271.00;10472815;28;20711;-70
2023/08/11 20:15:57;;;;;;;4.63;4.22;;;21.80;99.90;;;22.67;84.54;98269.88;10475563;28;20334;-70
2023/08/11 20:21:00;;;;;;;4.18;3.88;;;21.60;99.90;;;22.54;85.71;98269.66;10468488;28;20235;-70
2023/08/11 20:26:05;;;;;;;4.63;4.30;;;21.50;99.90;;;22.57;85.93;98272.31;10464311;28;20238;-69
2023/08/11 20:31:08;;;;;;;5.75;4.32;;;21.40;99.90;;;22.48;86.15;98267.81;10469131;28;20216;-69
2023/08/11 20:36:11;;;;;;;4.80;4.40;;;21.40;99.90;;;22.32;86.71;98265.81;10464851;28;20232;-69
2023/08/11 20:41:16;;;;;;;4.93;4.53;;;21.30;99.90;;;22.23;87.52;98261.31;10475681;28;20228;-69
2023/08/11 20:46:19;;;;;;;4.65;3.90;;;21.20;99.90;;;22.17;87.89;98251.66;10470165;28;20690;-70
2023/08/11 20:51:22;;;;;;;4.90;4.50;;;21.10;99.90;;;22.07;88.59;98251.47;10469906;28;20226;-69
2023/08/11 20:56:26;;;;;;;5.07;4.75;;;21.00;99.90;;;21.94;89.08;98253.81;10476064;28;20239;-69
2023/08/11 21:01:30;;;;;;;4.75;4.32;;;21.00;99.90;;;21.84;89.36;98251.91;10471119;28;20251;-70